createdAt,value
2023-04-23T00:02:07.196Z,2.83
2023-04-23T00:04:39.968Z,2.60
2023-04-23T00:07:14.561Z,3.00
2023-04-23T00:09:47.331Z,2.55
2023-04-23T00:12:21.388Z,2.50
2023-04-23T00:14:53.861Z,2.25
2023-04-23T00:17:26.630Z,2.80
2023-04-23T00:19:58.894Z,2.60
2023-04-23T00:22:31.656Z,2.35
2023-04-23T00:25:03.802Z,2.30
2023-04-23T00:27:39.668Z,2.25
2023-04-23T00:30:12.579Z,2.33
2023-04-23T00:32:45.438Z,2.60
2023-04-23T00:35:18.544Z,2.78
2023-04-23T00:37:51.874Z,2.72
2023-04-23T00:40:26.141Z,2.83
2023-04-23T00:42:59.790Z,2.92
2023-04-23T00:45:31.819Z,2.78
2023-04-23T00:48:04.951Z,2.40
2023-04-23T00:50:37.367Z,3.08
2023-04-23T00:53:10.224Z,2.78
2023-04-23T00:55:42.633Z,2.30
2023-04-23T00:58:18.496Z,2.42
2023-04-23T01:00:52.751Z,2.10
2023-04-23T01:03:27.482Z,2.55
2023-04-23T01:06:00.257Z,2.40
2023-04-23T01:08:34.524Z,2.08
2023-04-23T01:11:07.407Z,2.20
2023-04-23T01:13:40.237Z,2.40
2023-04-23T01:16:12.312Z,2.13
2023-04-23T01:18:45.453Z,2.22
2023-04-23T01:21:19.312Z,2.30
2023-04-23T01:23:52.155Z,2.50
2023-04-23T01:26:25.789Z,2.10
2023-04-23T01:29:00.393Z,2.20
2023-04-23T01:31:33.672Z,1.90
2023-04-23T01:34:07.078Z,2.20
2023-04-23T01:36:39.895Z,1.90
2023-04-23T01:39:12.886Z,2.08
2023-04-23T01:41:49.531Z,1.90
2023-04-23T01:44:21.909Z,2.42
2023-04-23T01:46:54.725Z,2.10
2023-04-23T01:49:27.252Z,1.73
2023-04-23T01:52:00.202Z,2.15
2023-04-23T01:54:32.216Z,1.80
2023-04-23T01:57:05.242Z,2.13
2023-04-23T01:59:39.156Z,2.13
2023-04-23T02:02:13.897Z,1.73
2023-04-23T02:04:49.240Z,1.80
2023-04-23T02:07:21.628Z,1.80
2023-04-23T02:09:53.534Z,1.90
2023-04-23T02:12:26.727Z,1.45
2023-04-23T02:14:58.640Z,1.70
2023-04-23T02:17:31.469Z,1.83
2023-04-23T02:20:11.407Z,1.63
2023-04-23T02:22:43.927Z,1.90
2023-04-23T02:25:17.966Z,1.80
2023-04-23T02:27:51.239Z,2.17
2023-04-23T02:30:25.132Z,1.90
2023-04-23T02:32:57.521Z,1.50
2023-04-23T02:35:30.287Z,1.90
2023-04-23T02:38:02.181Z,1.75
2023-04-23T02:40:34.886Z,2.00
2023-04-23T02:43:07.677Z,1.60
2023-04-23T02:45:41.289Z,1.75
2023-04-23T02:48:13.997Z,1.83
2023-04-23T02:50:46.822Z,1.80
2023-04-23T02:53:19.563Z,1.60
2023-04-23T02:55:51.962Z,1.55
2023-04-23T02:58:24.633Z,2.08
2023-04-23T03:01:00.375Z,1.75
2023-04-23T03:03:33.718Z,1.90
2023-04-23T03:06:09.216Z,1.80
2023-04-23T03:08:41.260Z,2.05
2023-04-23T03:11:14.497Z,1.98
2023-04-23T03:13:47.353Z,1.98
2023-04-23T03:16:20.457Z,1.60
2023-04-23T03:18:52.448Z,1.77
2023-04-23T03:21:25.855Z,1.83
2023-04-23T03:23:58.294Z,1.65
2023-04-23T03:26:30.734Z,1.98
2023-04-23T03:29:02.652Z,1.67
2023-04-23T03:31:35.800Z,1.80
2023-04-23T03:34:08.765Z,2.05
2023-04-23T03:36:41.719Z,1.75
2023-04-23T03:39:15.304Z,2.38
2023-04-23T03:41:56.020Z,1.70
2023-04-23T03:44:32.453Z,1.60
2023-04-23T03:47:05.078Z,1.45
2023-04-23T03:49:38.685Z,1.65
2023-04-23T03:52:11.553Z,1.60
2023-04-23T03:54:44.818Z,1.70
2023-04-23T03:57:22.285Z,1.77
2023-04-23T04:00:14.146Z,1.80
2023-04-23T04:02:47.633Z,2.00
2023-04-23T04:05:20.278Z,1.80
2023-04-23T04:07:53.089Z,1.92
2023-04-23T04:10:25.381Z,1.83
2023-04-23T04:12:58.707Z,2.10
2023-04-23T04:15:32.666Z,1.90
2023-04-23T04:18:05.072Z,2.00
2023-04-23T04:20:36.955Z,2.20
2023-04-23T04:23:10.182Z,1.80
2023-04-23T04:25:42.593Z,2.13
2023-04-23T04:28:15.870Z,1.60
2023-04-23T04:30:50.201Z,1.85
2023-04-23T04:33:22.464Z,1.80
2023-04-23T04:35:55.448Z,1.88
2023-04-23T04:38:28.849Z,2.00
2023-04-23T04:41:02.008Z,2.28
2023-04-23T04:43:35.154Z,2.10
2023-04-23T04:46:07.740Z,1.98
2023-04-23T04:48:41.045Z,1.98
2023-04-23T04:51:13.057Z,2.15
2023-04-23T04:53:45.802Z,2.13
2023-04-23T04:56:18.208Z,2.10
2023-04-23T04:58:50.147Z,1.88
2023-04-23T05:01:25.184Z,2.15
2023-04-23T05:03:57.575Z,2.30
2023-04-23T05:06:30.444Z,2.50
2023-04-23T05:09:02.408Z,2.38
2023-04-23T05:11:36.316Z,2.38
2023-04-23T05:14:08.677Z,2.67
2023-04-23T05:16:41.145Z,2.15
2023-04-23T05:19:13.494Z,2.13
2023-04-23T05:21:46.215Z,2.38
2023-04-23T05:24:18.114Z,2.50
2023-04-23T05:26:50.964Z,2.20
2023-04-23T05:29:22.867Z,2.20
2023-04-23T05:31:55.279Z,2.70
2023-04-23T05:34:27.302Z,2.22
2023-04-23T05:37:00.017Z,2.50
2023-04-23T05:39:32.315Z,2.20
2023-04-23T05:42:05.469Z,2.40
2023-04-23T05:44:37.446Z,2.58
2023-04-23T05:47:13.063Z,2.83
2023-04-23T05:49:45.394Z,2.40
2023-04-23T05:52:18.054Z,2.42
2023-04-23T05:54:51.733Z,2.95
2023-04-23T05:57:23.685Z,2.60
2023-04-23T05:59:56.403Z,2.65
2023-04-23T06:02:29.814Z,2.88
2023-04-23T06:05:02.451Z,2.60
2023-04-23T06:07:36.211Z,3.05
2023-04-23T06:10:08.949Z,2.90
2023-04-23T06:12:42.534Z,2.55
2023-04-23T06:15:15.301Z,2.88
2023-04-23T06:17:47.674Z,2.50
2023-04-23T06:20:19.793Z,2.45
2023-04-23T06:22:53.521Z,3.42
2023-04-23T06:25:25.831Z,2.80
2023-04-23T06:27:59.426Z,2.65
2023-04-23T06:30:35.154Z,3.33
2023-04-23T06:33:29.974Z,3.13
2023-04-23T06:36:02.319Z,3.05
2023-04-23T06:38:34.266Z,2.90
2023-04-23T06:41:07.624Z,2.87
2023-04-23T06:43:39.663Z,2.50
2023-04-23T06:46:37.438Z,2.80
2023-04-23T06:49:09.965Z,2.80
2023-04-23T06:51:42.456Z,3.10
2023-04-23T06:54:15.710Z,3.20
2023-04-23T06:56:48.177Z,2.72
2023-04-23T06:59:20.155Z,3.10
2023-04-23T07:01:57.275Z,2.90
2023-04-23T07:04:29.660Z,2.88
2023-04-23T07:07:03.605Z,3.15
2023-04-23T07:09:35.546Z,3.00
2023-04-23T07:12:08.752Z,2.80
2023-04-23T07:14:40.964Z,2.92
2023-04-23T07:17:13.936Z,2.60
2023-04-23T07:19:45.869Z,3.00
2023-04-23T07:22:18.642Z,3.00
2023-04-23T07:24:51.051Z,3.10
2023-04-23T07:27:24.409Z,2.97
2023-04-23T07:29:56.484Z,3.05
2023-04-23T07:32:29.813Z,2.92
2023-04-23T07:35:04.953Z,2.75
2023-04-23T07:37:38.367Z,2.95
2023-04-23T07:40:11.506Z,2.53
2023-04-23T07:42:44.063Z,2.80
2023-04-23T07:45:16.400Z,2.70
2023-04-23T07:47:50.626Z,2.78
2023-04-23T07:50:22.555Z,2.78
2023-04-23T07:52:54.885Z,2.53
2023-04-23T07:55:26.881Z,2.60
2023-04-23T07:57:59.835Z,2.70
2023-04-23T08:00:31.845Z,2.85
2023-04-23T08:03:04.992Z,2.78
2023-04-23T08:05:38.547Z,2.30
2023-04-23T08:08:13.807Z,2.38
2023-04-23T08:10:46.453Z,2.30
2023-04-23T08:13:18.830Z,2.47
2023-04-23T08:15:52.100Z,2.28
2023-04-23T08:18:25.236Z,2.20
2023-04-23T08:20:58.716Z,2.65
2023-04-23T08:26:24.029Z,2.40
2023-04-23T08:28:57.144Z,2.67
2023-04-23T08:31:30.511Z,2.20
2023-04-23T08:34:03.346Z,2.50
2023-04-23T08:36:36.068Z,2.50
2023-04-23T08:39:08.536Z,2.33
2023-04-23T08:41:45.171Z,2.20
2023-04-23T08:44:25.708Z,2.75
2023-04-23T08:47:02.409Z,2.70
2023-04-23T08:49:35.860Z,2.20
2023-04-23T08:52:18.349Z,2.55
2023-04-23T08:54:55.388Z,2.30
2023-04-23T08:57:28.269Z,2.58
2023-04-23T09:00:06.188Z,2.72
2023-04-23T09:02:43.590Z,2.37
2023-04-23T09:05:18.079Z,2.20
2023-04-23T09:08:12.391Z,2.17
2023-04-23T09:10:45.393Z,2.03
2023-04-23T09:13:17.832Z,2.20
2023-04-23T09:15:50.288Z,2.83
2023-04-23T09:18:23.247Z,2.50
2023-04-23T09:20:55.278Z,2.03
2023-04-23T09:23:28.062Z,2.35
2023-04-23T09:26:00.459Z,2.50
2023-04-23T09:28:37.712Z,2.50
2023-04-23T09:31:10.282Z,2.47
2023-04-23T09:33:43.365Z,2.50
2023-04-23T09:36:16.026Z,3.00
2023-04-23T09:38:49.882Z,2.15
2023-04-23T09:41:27.471Z,2.40
2023-04-23T09:43:59.769Z,2.40
2023-04-23T09:46:43.621Z,2.50
2023-04-23T09:49:16.319Z,2.53
2023-04-23T09:51:49.818Z,2.22
2023-04-23T09:54:25.424Z,2.77
2023-04-23T09:57:02.738Z,2.75
2023-04-23T09:59:48.789Z,2.50
2023-04-23T10:02:30.196Z,2.80
2023-04-23T10:05:21.131Z,2.75
2023-04-23T10:08:00.534Z,2.23
2023-04-23T10:10:38.256Z,2.90
2023-04-23T10:13:16.447Z,2.60
2023-04-23T10:15:49.305Z,2.72
2023-04-23T10:18:21.392Z,2.40
2023-04-23T10:20:54.441Z,2.47
2023-04-23T10:23:27.223Z,2.40
2023-04-23T10:26:02.007Z,2.08
2023-04-23T10:28:35.230Z,2.60
2023-04-23T10:31:10.704Z,2.13
2023-04-23T10:33:56.018Z,2.10
2023-04-23T10:36:32.554Z,2.15
2023-04-23T10:39:09.356Z,2.50
2023-04-23T10:41:43.921Z,1.80
2023-04-23T10:44:38.573Z,2.03
2023-04-23T10:47:16.902Z,2.30
2023-04-23T10:49:49.114Z,2.25
2023-04-23T10:52:24.546Z,2.10
2023-04-23T10:54:59.996Z,2.15
2023-04-23T10:58:02.420Z,2.13
2023-04-23T11:00:46.510Z,2.00
2023-04-23T11:03:43.426Z,2.10
2023-04-23T11:06:49.196Z,2.05
2023-04-23T11:09:48.605Z,1.88
2023-04-23T11:12:21.694Z,1.98
2023-04-23T11:14:56.434Z,2.00
2023-04-23T11:17:32.730Z,1.98
2023-04-23T11:20:14.160Z,2.08
2023-04-23T11:22:49.116Z,2.47
2023-04-23T11:25:28.142Z,2.20
2023-04-23T11:28:00.137Z,2.20
2023-04-23T11:30:34.106Z,1.60
2023-04-23T11:33:06.587Z,2.10
2023-04-23T11:35:41.846Z,2.22
2023-04-23T11:38:13.747Z,1.90
2023-04-23T11:40:48.903Z,2.30
2023-04-23T11:43:21.303Z,2.20
2023-04-23T11:45:56.987Z,2.20
2023-04-23T11:48:28.911Z,2.05
2023-04-23T11:51:02.551Z,2.65
2023-04-23T11:53:35.337Z,2.17
2023-04-23T11:56:07.907Z,1.88
2023-04-23T11:58:40.307Z,2.03
2023-04-23T12:01:16.017Z,2.10
2023-04-23T12:03:50.086Z,2.00
2023-04-23T12:06:22.293Z,2.20
2023-04-23T12:08:55.083Z,1.90
2023-04-23T12:11:27.242Z,2.00
2023-04-23T12:14:00.089Z,2.03
2023-04-23T12:16:47.401Z,2.10
2023-04-23T12:19:27.408Z,1.97
2023-04-23T12:22:05.653Z,2.10
2023-04-23T12:24:52.135Z,2.13
2023-04-23T12:27:25.023Z,2.10
2023-04-23T12:30:01.218Z,2.40
2023-04-23T12:32:35.300Z,2.30
2023-04-23T12:35:09.937Z,2.63
2023-04-23T12:37:42.964Z,2.63
2023-04-23T12:40:16.262Z,2.60
2023-04-23T12:42:48.635Z,2.72
2023-04-23T12:45:20.743Z,3.20
2023-04-23T12:47:54.732Z,2.60
2023-04-23T12:50:26.690Z,2.60
2023-04-23T12:52:59.930Z,2.70
2023-04-23T12:55:33.353Z,2.70
2023-04-23T12:58:06.483Z,2.60
2023-04-23T13:00:39.543Z,2.55
2023-04-23T13:03:14.244Z,2.47
2023-04-23T13:05:46.306Z,2.70
2023-04-23T13:08:19.069Z,2.50
2023-04-23T13:10:51.520Z,3.20
2023-04-23T13:13:23.883Z,2.83
2023-04-23T13:15:56.265Z,2.60
2023-04-23T13:18:31.788Z,2.75
2023-04-23T13:21:04.325Z,2.90
2023-04-23T13:23:37.323Z,2.97
2023-04-23T13:26:09.250Z,2.80
2023-04-23T13:28:42.080Z,3.30
2023-04-23T13:31:14.587Z,2.85
2023-04-23T13:33:47.023Z,2.67
2023-04-23T13:36:19.677Z,3.13
2023-04-23T13:38:53.041Z,2.70
2023-04-23T13:41:25.897Z,2.92
2023-04-23T13:43:57.831Z,2.80
2023-04-23T13:46:31.290Z,2.67
2023-04-23T13:49:03.745Z,2.60
2023-04-23T13:51:36.371Z,2.70
2023-04-23T13:54:08.792Z,2.42
2023-04-23T13:56:42.134Z,2.53
2023-04-23T13:59:20.212Z,2.72
2023-04-23T14:01:53.089Z,2.30
2023-04-23T14:04:27.039Z,2.33
2023-04-23T14:07:00.031Z,1.92
2023-04-23T14:09:33.031Z,2.03
2023-04-23T14:12:06.257Z,2.10
2023-04-23T14:14:38.721Z,2.43
2023-04-23T14:17:12.240Z,2.40
2023-04-23T14:19:44.268Z,1.80
2023-04-23T14:22:17.525Z,2.03
2023-04-23T14:24:58.159Z,2.00
2023-04-23T14:27:40.569Z,2.03
2023-04-23T14:30:20.774Z,2.15
2023-04-23T14:32:53.927Z,2.10
2023-04-23T14:35:39.522Z,2.38
2023-04-23T14:38:15.299Z,2.28
2023-04-23T14:40:48.140Z,2.20
2023-04-23T14:43:21.753Z,1.75
2023-04-23T14:45:54.494Z,1.83
2023-04-23T14:48:26.931Z,2.00
2023-04-23T14:50:59.230Z,1.75
2023-04-23T14:53:32.089Z,1.83
2023-04-23T14:56:04.460Z,2.53
2023-04-23T14:58:36.499Z,2.47
2023-04-23T15:01:10.057Z,1.88
2023-04-23T15:04:05.198Z,2.20
2023-04-23T15:06:38.743Z,2.20
2023-04-23T15:09:10.698Z,2.10
2023-04-23T15:11:43.886Z,1.88
2023-04-23T15:14:33.406Z,2.25
2023-04-23T15:17:05.416Z,2.30
2023-04-23T15:19:39.247Z,2.57
2023-04-23T15:22:11.585Z,2.50
2023-04-23T15:24:44.325Z,2.15
2023-04-23T15:27:19.601Z,2.13
2023-04-23T15:29:52.352Z,2.30
2023-04-23T15:32:25.109Z,2.30
2023-04-23T15:34:57.023Z,1.90
2023-04-23T15:37:29.917Z,1.98
2023-04-23T15:40:02.381Z,2.13
2023-04-23T15:42:34.432Z,1.95
2023-04-23T15:45:12.100Z,2.10
2023-04-23T15:47:44.491Z,1.70
2023-04-23T15:50:17.375Z,2.20
2023-04-23T15:52:50.517Z,1.80
2023-04-23T15:55:23.490Z,2.00
2023-04-23T15:57:55.676Z,2.87
2023-04-23T16:00:29.235Z,2.30
2023-04-23T16:03:04.570Z,2.70
2023-04-23T16:05:37.847Z,2.33
2023-04-23T16:08:10.030Z,2.10
2023-04-23T16:10:42.835Z,2.30
2023-04-23T16:13:15.270Z,2.35
2023-04-23T16:15:47.647Z,2.25
2023-04-23T16:18:20.565Z,1.92
2023-04-23T16:20:52.662Z,2.42
2023-04-23T16:23:26.068Z,2.00
2023-04-23T16:25:58.091Z,2.25
2023-04-23T16:28:31.081Z,2.00
2023-04-23T16:31:03.719Z,1.88
2023-04-23T16:33:36.490Z,1.92
2023-04-23T16:36:08.436Z,2.17
2023-04-23T16:38:42.602Z,2.15
2023-04-23T16:41:17.618Z,2.30
2023-04-23T16:43:50.090Z,2.25
2023-04-23T16:46:22.544Z,2.30
2023-04-23T16:48:54.841Z,2.27
2023-04-23T16:51:29.185Z,2.25
2023-04-23T16:54:01.214Z,2.15
2023-04-23T16:56:34.587Z,1.95
2023-04-23T16:59:07.415Z,2.25
2023-04-23T17:01:42.958Z,2.50
2023-04-23T17:04:15.665Z,2.00
2023-04-23T17:06:49.216Z,2.17
2023-04-23T17:09:21.690Z,2.15
2023-04-23T17:11:54.497Z,2.50
2023-04-23T17:14:27.377Z,2.10
2023-04-23T17:17:00.311Z,2.28
2023-04-23T17:19:32.240Z,2.60
2023-04-23T17:22:06.732Z,2.45
2023-04-23T17:24:39.744Z,2.30
2023-04-23T17:27:14.584Z,2.43
2023-04-23T17:29:47.313Z,2.33
2023-04-23T17:32:20.342Z,2.30
2023-04-23T17:35:06.308Z,2.17
2023-04-23T17:37:42.802Z,2.30
2023-04-23T17:40:14.796Z,2.20
2023-04-23T17:42:47.955Z,2.90
2023-04-23T17:45:21.094Z,3.10
2023-04-23T17:47:53.582Z,3.50
2023-04-23T17:50:28.756Z,2.63
2023-04-23T17:53:01.085Z,3.05
2023-04-23T17:55:34.490Z,2.47
2023-04-23T17:58:08.674Z,2.40
2023-04-23T18:00:42.924Z,2.67
2023-04-23T18:03:20.069Z,2.70
2023-04-23T18:05:52.549Z,3.20
2023-04-23T18:08:27.506Z,3.15
2023-04-23T18:11:00.232Z,2.88
2023-04-23T18:13:34.112Z,2.75
2023-04-23T18:16:06.087Z,2.92
2023-04-23T18:18:38.923Z,2.38
2023-04-23T18:21:18.167Z,3.00
2023-04-23T18:23:51.022Z,2.90
2023-04-23T18:26:23.896Z,2.60
2023-04-23T18:28:57.013Z,2.42
2023-04-23T18:31:32.674Z,2.63
2023-04-23T18:34:10.339Z,2.67
2023-04-23T18:36:45.063Z,2.58
2023-04-23T18:39:16.990Z,1.98
2023-04-23T18:41:50.744Z,2.03
2023-04-23T18:44:23.131Z,2.00
2023-04-23T18:50:01.491Z,3.67
2023-04-23T18:52:34.301Z,2.03
2023-04-23T18:55:07.755Z,1.90
2023-04-23T18:57:40.082Z,2.10
2023-04-23T19:00:14.295Z,2.10
2023-04-23T19:02:47.584Z,1.77
2023-04-23T19:05:19.946Z,2.20
2023-04-23T19:07:53.523Z,2.30
2023-04-23T19:10:25.808Z,1.90
2023-04-23T19:12:59.562Z,1.88
2023-04-23T19:15:32.202Z,1.92
2023-04-23T19:18:06.113Z,2.22
2023-04-23T19:20:38.878Z,2.47
2023-04-23T19:23:12.485Z,2.60
2023-04-23T19:25:44.835Z,2.55
2023-04-23T19:28:17.654Z,1.98
2023-04-23T19:30:49.562Z,2.30
2023-04-23T19:33:22.332Z,2.00
2023-04-23T19:35:54.958Z,2.25
2023-04-23T19:38:27.386Z,1.70
2023-04-23T19:41:03.770Z,1.90
2023-04-23T19:43:36.099Z,2.20
2023-04-23T19:46:08.865Z,2.00
2023-04-23T19:48:41.841Z,2.08
2023-04-23T19:51:14.240Z,2.00
2023-04-23T19:53:46.671Z,1.90
2023-04-23T19:56:19.645Z,2.03
2023-04-23T19:58:51.530Z,3.97
2023-04-23T20:01:25.396Z,1.98
2023-04-23T20:04:00.610Z,1.70
2023-04-23T20:06:33.764Z,2.13
2023-04-23T20:09:08.808Z,1.70
2023-04-23T20:11:41.211Z,1.90
2023-04-23T20:14:14.385Z,2.10
2023-04-23T20:16:48.261Z,1.50
2023-04-23T20:19:20.282Z,1.80
2023-04-23T20:21:54.058Z,2.20
2023-04-23T20:24:26.939Z,2.08
2023-04-23T20:26:59.524Z,2.25
2023-04-23T20:29:32.589Z,2.25
2023-04-23T20:32:04.555Z,2.00
2023-04-23T20:34:37.062Z,1.83
2023-04-23T20:37:10.685Z,1.60
2023-04-23T20:39:43.230Z,2.10
2023-04-23T20:42:16.760Z,2.05
2023-04-23T20:44:48.961Z,1.70
2023-04-23T20:47:22.185Z,1.80
2023-04-23T20:49:54.175Z,1.92
2023-04-23T20:52:27.749Z,2.53
2023-04-23T20:55:00.033Z,1.75
2023-04-23T20:57:33.345Z,1.85
2023-04-23T21:00:12.561Z,2.05
2023-04-23T21:02:44.665Z,1.90
2023-04-23T21:05:17.510Z,1.42
2023-04-23T21:07:50.664Z,1.90
2023-04-23T21:10:45.490Z,1.73
2023-04-23T21:13:17.530Z,1.40
2023-04-23T21:15:50.392Z,1.45
2023-04-23T21:18:23.160Z,1.80
2023-04-23T21:20:55.178Z,1.85
2023-04-23T21:23:28.307Z,1.60
2023-04-23T21:26:01.128Z,1.80
2023-04-23T21:28:33.472Z,1.80
2023-04-23T21:31:34.125Z,1.60
2023-04-23T21:34:06.971Z,1.60
2023-04-23T21:36:39.169Z,1.65
2023-04-23T21:39:13.231Z,1.75
2023-04-23T21:41:47.145Z,1.70
2023-04-23T21:44:20.058Z,1.60
2023-04-23T21:46:52.979Z,2.03
2023-04-23T21:49:25.309Z,1.80
2023-04-23T21:51:57.792Z,1.50
2023-04-23T21:54:29.845Z,1.92
2023-04-23T21:57:03.190Z,2.10
2023-04-23T21:59:35.191Z,1.60
2023-04-23T22:02:08.766Z,1.77
2023-04-23T22:04:41.124Z,1.60
2023-04-23T22:07:13.549Z,1.60
2023-04-23T22:09:47.969Z,1.60
2023-04-23T22:12:20.372Z,1.60
2023-04-23T22:14:53.170Z,1.80
2023-04-23T22:17:26.194Z,1.65
2023-04-23T22:19:59.057Z,1.73
2023-04-23T22:22:31.433Z,1.52
2023-04-23T22:25:08.254Z,1.85
2023-04-23T22:27:41.996Z,1.80
2023-04-23T22:30:15.854Z,1.67
2023-04-23T22:32:48.806Z,1.70
2023-04-23T22:35:20.866Z,1.75
2023-04-23T22:37:53.682Z,1.63
2023-04-23T22:40:26.069Z,1.83
2023-04-23T22:42:58.785Z,1.70
2023-04-23T22:45:31.329Z,1.90
2023-04-23T22:48:04.268Z,1.55
2023-04-23T22:50:40.357Z,1.80
2023-04-23T22:53:13.616Z,1.83
2023-04-23T22:55:46.918Z,1.60
2023-04-23T22:58:19.242Z,1.52
2023-04-23T23:00:51.137Z,1.70
2023-04-23T23:03:23.913Z,1.60
2023-04-23T23:05:57.787Z,1.60
2023-04-23T23:08:30.110Z,1.80
2023-04-23T23:11:02.105Z,1.73
2023-04-23T23:13:34.916Z,1.50
2023-04-23T23:16:07.652Z,1.83
2023-04-23T23:18:40.046Z,1.60
2023-04-23T23:21:12.617Z,1.88
2023-04-23T23:23:44.569Z,2.08
2023-04-23T23:26:17.384Z,1.50
2023-04-23T23:28:49.677Z,1.63
2023-04-23T23:31:26.249Z,1.60
2023-04-23T23:33:59.129Z,1.67
2023-04-23T23:36:34.465Z,1.80
2023-04-23T23:39:08.187Z,1.90
2023-04-23T23:41:40.502Z,1.80
2023-04-23T23:44:12.918Z,1.70
2023-04-23T23:46:45.745Z,1.77
2023-04-23T23:49:18.152Z,1.95
2023-04-23T23:51:53.747Z,1.92
2023-04-23T23:54:28.983Z,2.42
2023-04-23T23:57:01.852Z,1.60
2023-04-23T23:59:34.617Z,1.60
